sensor_id;sensor_type;location;lat;lon;timestamp;pressure;altitude;pressure_sealevel;temperature;humidity
75497;BME280;64074;47.540;19.072;2023-04-30T00:01:33;100431.16;;;14.83;58.10
75497;BME280;64074;47.540;19.072;2023-04-30T00:04:59;100439.00;;;14.59;59.08
75497;BME280;64074;47.540;19.072;2023-04-30T00:08:40;100424.41;;;13.98;60.66
75497;BME280;64074;47.540;19.072;2023-04-30T00:12:31;100429.44;;;14.22;60.23
75497;BME280;64074;47.540;19.072;2023-04-30T00:16:18;100433.63;;;14.28;59.87
75497;BME280;64074;47.540;19.072;2023-04-30T00:20:05;100435.22;;;14.29;60.03
75497;BME280;64074;47.540;19.072;2023-04-30T00:23:35;100435.56;;;14.27;60.16
75497;BME280;64074;47.540;19.072;2023-04-30T00:27:02;100431.84;;;14.23;60.31
75497;BME280;64074;47.540;19.072;2023-04-30T00:31:03;100429.06;;;14.06;61.10
75497;BME280;64074;47.540;19.072;2023-04-30T00:34:41;100436.13;;;13.98;61.12
75497;BME280;64074;47.540;19.072;2023-04-30T00:38:19;100429.69;;;13.94;61.36
75497;BME280;64074;47.540;19.072;2023-04-30T00:41:40;100425.75;;;13.69;62.65
75497;BME280;64074;47.540;19.072;2023-04-30T00:45:06;100428.19;;;13.79;62.19
75497;BME280;64074;47.540;19.072;2023-04-30T00:54:39;100420.63;;;13.76;63.82
75497;BME280;64074;47.540;19.072;2023-04-30T00:58:10;100420.78;;;13.71;63.44
75497;BME280;64074;47.540;19.072;2023-04-30T01:01:38;100416.53;;;13.57;64.06
75497;BME280;64074;47.540;19.072;2023-04-30T01:05:04;100426.22;;;13.71;64.15
75497;BME280;64074;47.540;19.072;2023-04-30T01:08:25;100424.47;;;13.75;64.91
75497;BME280;64074;47.540;19.072;2023-04-30T01:15:37;100415.31;;;13.71;65.72
75497;BME280;64074;47.540;19.072;2023-04-30T01:30:15;100413.56;;;13.75;63.37
75497;BME280;64074;47.540;19.072;2023-04-30T01:33:35;100418.88;;;13.80;63.41
75497;BME280;64074;47.540;19.072;2023-04-30T01:40:23;100421.66;;;13.58;62.86
75497;BME280;64074;47.540;19.072;2023-04-30T01:50:46;100426.59;;;13.87;62.63
75497;BME280;64074;47.540;19.072;2023-04-30T01:54:11;100423.06;;;13.86;62.85
75497;BME280;64074;47.540;19.072;2023-04-30T01:57:36;100431.88;;;13.83;63.37
75497;BME280;64074;47.540;19.072;2023-04-30T02:00:45;100434.97;;;13.91;63.14
75497;BME280;64074;47.540;19.072;2023-04-30T02:03:59;100430.13;;;13.88;63.33
75497;BME280;64074;47.540;19.072;2023-04-30T02:07:37;100425.81;;;13.55;63.58
75497;BME280;64074;47.540;19.072;2023-04-30T02:10:55;100417.56;;;13.69;62.98
75497;BME280;64074;47.540;19.072;2023-04-30T02:14:16;100414.72;;;13.83;62.25
75497;BME280;64074;47.540;19.072;2023-04-30T02:17:35;100419.41;;;13.91;62.48
75497;BME280;64074;47.540;19.072;2023-04-30T02:20:53;100410.44;;;13.91;62.80
75497;BME280;64074;47.540;19.072;2023-04-30T02:24:13;100421.94;;;13.88;63.11
75497;BME280;64074;47.540;19.072;2023-04-30T02:27:30;100424.31;;;13.72;63.53
75497;BME280;64074;47.540;19.072;2023-04-30T02:30:52;100417.56;;;13.69;63.73
75497;BME280;64074;47.540;19.072;2023-04-30T02:34:16;100418.94;;;13.58;64.26
75497;BME280;64074;47.540;19.072;2023-04-30T02:37:51;100425.53;;;13.35;65.33
75497;BME280;64074;47.540;19.072;2023-04-30T02:41:02;100424.81;;;13.43;65.32
75497;BME280;64074;47.540;19.072;2023-04-30T02:44:17;100418.88;;;13.41;65.35
75497;BME280;64074;47.540;19.072;2023-04-30T02:47:39;100436.88;;;13.28;65.14
75497;BME280;64074;47.540;19.072;2023-04-30T02:51:07;100438.66;;;13.33;63.83
75497;BME280;64074;47.540;19.072;2023-04-30T02:54:29;100429.06;;;13.35;63.81
75497;BME280;64074;47.540;19.072;2023-04-30T02:57:43;100431.38;;;13.42;63.01
75497;BME280;64074;47.540;19.072;2023-04-30T03:01:15;100437.78;;;13.46;62.83
75497;BME280;64074;47.540;19.072;2023-04-30T03:04:29;100426.63;;;13.56;62.42
75497;BME280;64074;47.540;19.072;2023-04-30T03:07:56;100441.34;;;13.55;62.50
75497;BME280;64074;47.540;19.072;2023-04-30T03:11:40;100431.41;;;13.50;61.52
75497;BME280;64074;47.540;19.072;2023-04-30T03:15:23;100433.38;;;13.59;61.81
75497;BME280;64074;47.540;19.072;2023-04-30T03:18:56;100429.94;;;13.44;61.33
75497;BME280;64074;47.540;19.072;2023-04-30T03:22:35;100430.34;;;13.38;61.45
75497;BME280;64074;47.540;19.072;2023-04-30T03:26:33;100430.13;;;13.48;61.37
75497;BME280;64074;47.540;19.072;2023-04-30T03:30:14;100439.16;;;13.35;61.17
75497;BME280;64074;47.540;19.072;2023-04-30T03:33:55;100433.66;;;13.48;61.06
75497;BME280;64074;47.540;19.072;2023-04-30T03:37:27;100440.53;;;13.46;62.07
75497;BME280;64074;47.540;19.072;2023-04-30T03:41:04;100429.69;;;13.32;62.36
75497;BME280;64074;47.540;19.072;2023-04-30T03:44:30;100432.00;;;13.39;63.78
75497;BME280;64074;47.540;19.072;2023-04-30T03:47:50;100429.28;;;13.39;65.02
75497;BME280;64074;47.540;19.072;2023-04-30T03:51:25;100431.47;;;13.37;65.48
75497;BME280;64074;47.540;19.072;2023-04-30T03:55:19;100424.25;;;13.32;66.04
75497;BME280;64074;47.540;19.072;2023-04-30T03:58:50;100439.53;;;13.42;66.38
75497;BME280;64074;47.540;19.072;2023-04-30T04:02:30;100443.72;;;13.03;68.96
75497;BME280;64074;47.540;19.072;2023-04-30T04:06:01;100445.22;;;13.32;67.85
75497;BME280;64074;47.540;19.072;2023-04-30T04:09:36;100453.84;;;13.25;68.96
75497;BME280;64074;47.540;19.072;2023-04-30T04:13:07;100468.41;;;13.07;70.35
75497;BME280;64074;47.540;19.072;2023-04-30T04:17:39;100469.97;;;12.85;71.87
75497;BME280;64074;47.540;19.072;2023-04-30T04:21:46;100468.66;;;12.97;72.04
75497;BME280;64074;47.540;19.072;2023-04-30T04:25:54;100468.97;;;12.95;71.94
75497;BME280;64074;47.540;19.072;2023-04-30T04:29:36;100476.53;;;12.84;72.02
75497;BME280;64074;47.540;19.072;2023-04-30T04:33:06;100493.84;;;12.88;72.10
75497;BME280;64074;47.540;19.072;2023-04-30T04:36:22;100479.66;;;12.91;72.66
75497;BME280;64074;47.540;19.072;2023-04-30T04:39:50;100486.34;;;12.72;73.41
75497;BME280;64074;47.540;19.072;2023-04-30T04:43:16;100505.28;;;12.77;73.42
75497;BME280;64074;47.540;19.072;2023-04-30T04:46:50;100508.13;;;12.72;74.06
75497;BME280;64074;47.540;19.072;2023-04-30T04:50:16;100517.22;;;12.53;74.92
75497;BME280;64074;47.540;19.072;2023-04-30T04:53:39;100523.66;;;12.57;73.90
75497;BME280;64074;47.540;19.072;2023-04-30T04:57:03;100518.09;;;12.62;74.45
75497;BME280;64074;47.540;19.072;2023-04-30T05:00:43;100525.78;;;12.47;75.47
75497;BME280;64074;47.540;19.072;2023-04-30T05:04:18;100539.03;;;12.76;73.76
75497;BME280;64074;47.540;19.072;2023-04-30T05:07:51;100530.06;;;12.75;74.30
75497;BME280;64074;47.540;19.072;2023-04-30T05:11:29;100533.50;;;12.81;74.78
75497;BME280;64074;47.540;19.072;2023-04-30T05:15:09;100535.09;;;12.82;74.88
75497;BME280;64074;47.540;19.072;2023-04-30T05:18:55;100529.28;;;12.61;74.75
75497;BME280;64074;47.540;19.072;2023-04-30T05:22:35;100530.50;;;12.69;74.86
75497;BME280;64074;47.540;19.072;2023-04-30T05:26:43;100534.78;;;12.83;74.33
75497;BME280;64074;47.540;19.072;2023-04-30T05:30:06;100536.59;;;12.88;74.33
75497;BME280;64074;47.540;19.072;2023-04-30T05:33:31;100539.13;;;12.84;74.97
75497;BME280;64074;47.540;19.072;2023-04-30T05:36:48;100536.44;;;13.07;73.48
75497;BME280;64074;47.540;19.072;2023-04-30T05:40:03;100539.28;;;13.15;73.48
75497;BME280;64074;47.540;19.072;2023-04-30T05:43:24;100548.16;;;13.21;73.28
75497;BME280;64074;47.540;19.072;2023-04-30T05:46:39;100548.25;;;13.16;73.47
75497;BME280;64074;47.540;19.072;2023-04-30T05:49:50;100543.44;;;13.35;72.94
75497;BME280;64074;47.540;19.072;2023-04-30T05:53:12;100546.09;;;13.13;73.85
75497;BME280;64074;47.540;19.072;2023-04-30T05:56:32;100547.09;;;13.31;72.70
75497;BME280;64074;47.540;19.072;2023-04-30T05:59:37;100557.66;;;13.68;71.70
75497;BME280;64074;47.540;19.072;2023-04-30T06:02:47;100559.47;;;13.81;71.05
75497;BME280;64074;47.540;19.072;2023-04-30T06:06:15;100552.09;;;13.82;70.62
75497;BME280;64074;47.540;19.072;2023-04-30T06:09:21;100550.75;;;13.71;70.83
75497;BME280;64074;47.540;19.072;2023-04-30T06:12:26;100556.09;;;13.76;70.63
75497;BME280;64074;47.540;19.072;2023-04-30T06:15:35;100551.16;;;13.86;70.08
75497;BME280;64074;47.540;19.072;2023-04-30T06:18:53;100557.56;;;13.82;70.50
75497;BME280;64074;47.540;19.072;2023-04-30T06:22:16;100550.72;;;14.24;68.87
75497;BME280;64074;47.540;19.072;2023-04-30T06:25:33;100545.63;;;14.31;68.61
75497;BME280;64074;47.540;19.072;2023-04-30T06:28:47;100552.63;;;14.15;68.60
75497;BME280;64074;47.540;19.072;2023-04-30T06:32:17;100550.56;;;14.21;68.62
75497;BME280;64074;47.540;19.072;2023-04-30T06:35:29;100552.31;;;14.16;69.15
75497;BME280;64074;47.540;19.072;2023-04-30T06:38:51;100553.75;;;14.14;68.82
75497;BME280;64074;47.540;19.072;2023-04-30T06:42:25;100547.38;;;14.27;68.35
75497;BME280;64074;47.540;19.072;2023-04-30T06:46:13;100550.91;;;14.28;68.17
75497;BME280;64074;47.540;19.072;2023-04-30T06:49:37;100547.97;;;14.55;66.99
75497;BME280;64074;47.540;19.072;2023-04-30T06:53:02;100540.50;;;14.87;65.82
75497;BME280;64074;47.540;19.072;2023-04-30T06:56:24;100537.47;;;14.88;65.36
75497;BME280;64074;47.540;19.072;2023-04-30T06:59:46;100546.78;;;14.96;65.33
75497;BME280;64074;47.540;19.072;2023-04-30T07:03:08;100555.47;;;15.06;64.97
75497;BME280;64074;47.540;19.072;2023-04-30T07:06:33;100554.81;;;14.92;64.65
75497;BME280;64074;47.540;19.072;2023-04-30T07:09:51;100550.66;;;14.95;64.49
75497;BME280;64074;47.540;19.072;2023-04-30T07:13:31;100558.00;;;14.86;64.82
75497;BME280;64074;47.540;19.072;2023-04-30T07:16:49;100560.88;;;14.81;64.88
75497;BME280;64074;47.540;19.072;2023-04-30T07:20:08;100560.94;;;15.06;64.02
75497;BME280;64074;47.540;19.072;2023-04-30T07:23:37;100550.97;;;15.02;64.51
75497;BME280;64074;47.540;19.072;2023-04-30T07:27:00;100555.66;;;15.19;63.62
75497;BME280;64074;47.540;19.072;2023-04-30T07:30:45;100551.31;;;15.52;62.75
75497;BME280;64074;47.540;19.072;2023-04-30T07:34:26;100553.09;;;15.65;61.54
75497;BME280;64074;47.540;19.072;2023-04-30T07:38:00;100557.56;;;15.79;61.34
75497;BME280;64074;47.540;19.072;2023-04-30T07:41:09;100554.88;;;15.61;61.10
75497;BME280;64074;47.540;19.072;2023-04-30T07:44:19;100549.38;;;15.70;61.05
75497;BME280;64074;47.540;19.072;2023-04-30T07:47:42;100556.28;;;15.76;60.05
75497;BME280;64074;47.540;19.072;2023-04-30T07:50:53;100553.53;;;15.93;59.66
75497;BME280;64074;47.540;19.072;2023-04-30T07:54:04;100539.28;;;16.17;59.19
75497;BME280;64074;47.540;19.072;2023-04-30T07:57:25;100562.03;;;16.00;59.97
75497;BME280;64074;47.540;19.072;2023-04-30T08:01:18;100559.09;;;16.06;59.91
75497;BME280;64074;47.540;19.072;2023-04-30T08:04:45;100564.91;;;16.04;59.11
75497;BME280;64074;47.540;19.072;2023-04-30T08:08:14;100572.69;;;16.40;58.13
75497;BME280;64074;47.540;19.072;2023-04-30T08:11:38;100561.38;;;16.80;57.36
75497;BME280;64074;47.540;19.072;2023-04-30T08:15:04;100561.03;;;17.11;56.86
75497;BME280;64074;47.540;19.072;2023-04-30T08:18:33;100566.06;;;16.79;55.66
75497;BME280;64074;47.540;19.072;2023-04-30T08:21:59;100571.91;;;16.99;54.95
75497;BME280;64074;47.540;19.072;2023-04-30T08:25:17;100568.16;;;17.45;54.21
75497;BME280;64074;47.540;19.072;2023-04-30T08:28:27;100549.59;;;17.83;53.60
75497;BME280;64074;47.540;19.072;2023-04-30T08:31:47;100556.78;;;18.21;52.31
75497;BME280;64074;47.540;19.072;2023-04-30T08:35:19;100552.97;;;18.01;51.57
75497;BME280;64074;47.540;19.072;2023-04-30T08:38:24;100560.38;;;18.01;52.11
75497;BME280;64074;47.540;19.072;2023-04-30T08:41:44;100552.84;;;17.98;50.03
75497;BME280;64074;47.540;19.072;2023-04-30T08:45:19;100559.06;;;18.31;50.10
75497;BME280;64074;47.540;19.072;2023-04-30T08:48:43;100551.63;;;18.56;47.52
75497;BME280;64074;47.540;19.072;2023-04-30T08:51:55;100550.78;;;18.64;45.41
75497;BME280;64074;47.540;19.072;2023-04-30T08:55:15;100554.06;;;18.94;44.27
75497;BME280;64074;47.540;19.072;2023-04-30T08:59:18;100548.16;;;19.20;44.37
75497;BME280;64074;47.540;19.072;2023-04-30T09:02:59;100548.44;;;18.79;45.11
75497;BME280;64074;47.540;19.072;2023-04-30T09:06:17;100545.03;;;18.69;47.37
75497;BME280;64074;47.540;19.072;2023-04-30T09:09:40;100552.19;;;18.25;47.90
75497;BME280;64074;47.540;19.072;2023-04-30T09:13:02;100544.00;;;18.86;45.89
75497;BME280;64074;47.540;19.072;2023-04-30T09:16:22;100545.16;;;19.25;42.06
75497;BME280;64074;47.540;19.072;2023-04-30T09:19:31;100547.69;;;19.18;42.57
75497;BME280;64074;47.540;19.072;2023-04-30T09:23:05;100545.88;;;19.78;42.14
75497;BME280;64074;47.540;19.072;2023-04-30T09:26:44;100545.06;;;19.78;41.69
75497;BME280;64074;47.540;19.072;2023-04-30T09:30:31;100540.13;;;19.83;41.99
75497;BME280;64074;47.540;19.072;2023-04-30T09:34:08;100534.13;;;20.09;41.37
75497;BME280;64074;47.540;19.072;2023-04-30T09:37:41;100531.03;;;20.11;42.39
75497;BME280;64074;47.540;19.072;2023-04-30T09:41:19;100534.94;;;20.10;41.43
75497;BME280;64074;47.540;19.072;2023-04-30T09:44:38;100532.53;;;20.40;40.30
75497;BME280;64074;47.540;19.072;2023-04-30T09:47:53;100530.41;;;20.49;40.38
75497;BME280;64074;47.540;19.072;2023-04-30T09:51:29;100529.56;;;20.01;40.61
75497;BME280;64074;47.540;19.072;2023-04-30T09:55:00;100524.06;;;20.01;40.84
75497;BME280;64074;47.540;19.072;2023-04-30T09:58:27;100523.56;;;20.11;40.86
75497;BME280;64074;47.540;19.072;2023-04-30T10:02:19;100523.75;;;20.34;40.52
75497;BME280;64074;47.540;19.072;2023-04-30T10:06:05;100530.16;;;19.79;42.19
75497;BME280;64074;47.540;19.072;2023-04-30T10:09:25;100516.78;;;19.93;41.16
75497;BME280;64074;47.540;19.072;2023-04-30T10:12:54;100522.84;;;19.83;41.69
75497;BME280;64074;47.540;19.072;2023-04-30T10:16:14;100524.66;;;19.79;41.24
75497;BME280;64074;47.540;19.072;2023-04-30T10:19:25;100529.28;;;19.75;41.02
75497;BME280;64074;47.540;19.072;2023-04-30T10:22:49;100519.59;;;19.65;41.33
75497;BME280;64074;47.540;19.072;2023-04-30T10:26:15;100518.56;;;19.85;41.05
75497;BME280;64074;47.540;19.072;2023-04-30T10:29:41;100517.78;;;20.16;40.57
75497;BME280;64074;47.540;19.072;2023-04-30T10:33:53;100519.72;;;19.84;40.87
75497;BME280;64074;47.540;19.072;2023-04-30T10:37:42;100521.22;;;20.29;40.53
75497;BME280;64074;47.540;19.072;2023-04-30T10:40:59;100519.75;;;20.47;39.79
75497;BME280;64074;47.540;19.072;2023-04-30T10:44:11;100516.31;;;19.75;40.85
75497;BME280;64074;47.540;19.072;2023-04-30T10:47:27;100516.56;;;19.42;41.53
75497;BME280;64074;47.540;19.072;2023-04-30T10:50:43;100523.94;;;19.66;40.78
75497;BME280;64074;47.540;19.072;2023-04-30T10:53:55;100517.78;;;19.57;41.02
75497;BME280;64074;47.540;19.072;2023-04-30T10:57:16;100525.84;;;20.25;39.95
75497;BME280;64074;47.540;19.072;2023-04-30T11:00:32;100517.13;;;20.07;40.13
75497;BME280;64074;47.540;19.072;2023-04-30T11:04:07;100508.81;;;20.86;39.20
75497;BME280;64074;47.540;19.072;2023-04-30T11:08:04;100522.13;;;20.49;39.87
75497;BME280;64074;47.540;19.072;2023-04-30T11:12:08;100508.38;;;20.49;40.37
75497;BME280;64074;47.540;19.072;2023-04-30T11:15:44;100514.69;;;21.58;38.83
75497;BME280;64074;47.540;19.072;2023-04-30T11:19:12;100508.81;;;21.05;39.03
75497;BME280;64074;47.540;19.072;2023-04-30T11:22:34;100512.34;;;21.22;39.01
75497;BME280;64074;47.540;19.072;2023-04-30T11:25:55;100517.81;;;21.37;38.58
75497;BME280;64074;47.540;19.072;2023-04-30T11:29:17;100506.13;;;20.54;39.85
75497;BME280;64074;47.540;19.072;2023-04-30T11:33:54;100522.44;;;20.79;39.24
75497;BME280;64074;47.540;19.072;2023-04-30T11:37:20;100521.75;;;21.01;38.54
75497;BME280;64074;47.540;19.072;2023-04-30T11:41:14;100504.94;;;21.26;38.18
75497;BME280;64074;47.540;19.072;2023-04-30T11:44:29;100515.25;;;21.48;37.16
75497;BME280;64074;47.540;19.072;2023-04-30T11:47:48;100509.31;;;21.88;37.19
75497;BME280;64074;47.540;19.072;2023-04-30T11:51:22;100522.06;;;21.54;37.16
75497;BME280;64074;47.540;19.072;2023-04-30T11:54:38;100509.06;;;21.97;36.73
75497;BME280;64074;47.540;19.072;2023-04-30T11:57:59;100505.84;;;21.72;36.77
75497;BME280;64074;47.540;19.072;2023-04-30T12:01:05;100500.09;;;21.80;36.54
75497;BME280;64074;47.540;19.072;2023-04-30T12:04:22;100503.19;;;22.74;35.04
75497;BME280;64074;47.540;19.072;2023-04-30T12:07:49;100501.06;;;23.54;33.36
75497;BME280;64074;47.540;19.072;2023-04-30T12:11:30;100496.44;;;24.50;31.25
75497;BME280;64074;47.540;19.072;2023-04-30T12:15:27;100492.91;;;24.05;32.08
75497;BME280;64074;47.540;19.072;2023-04-30T12:18:40;100481.78;;;24.49;30.93
75497;BME280;64074;47.540;19.072;2023-04-30T12:22:33;100495.59;;;25.04;30.19
75497;BME280;64074;47.540;19.072;2023-04-30T12:26:02;100480.38;;;25.89;28.74
75497;BME280;64074;47.540;19.072;2023-04-30T12:29:23;100478.00;;;26.58;28.05
75497;BME280;64074;47.540;19.072;2023-04-30T12:39:00;100466.59;;;27.33;26.27
75497;BME280;64074;47.540;19.072;2023-04-30T12:43:04;100466.78;;;25.52;29.44
75497;BME280;64074;47.540;19.072;2023-04-30T12:46:37;100460.50;;;24.09;30.95
75497;BME280;64074;47.540;19.072;2023-04-30T12:50:59;100465.09;;;23.94;31.79
75497;BME280;64074;47.540;19.072;2023-04-30T12:54:34;100472.25;;;24.47;31.46
75497;BME280;64074;47.540;19.072;2023-04-30T12:58:07;100464.50;;;26.14;27.83
75497;BME280;64074;47.540;19.072;2023-04-30T13:01:20;100442.19;;;27.62;26.41
75497;BME280;64074;47.540;19.072;2023-04-30T13:04:51;100445.72;;;27.66;26.28
75497;BME280;64074;47.540;19.072;2023-04-30T13:08:05;100442.22;;;26.60;26.72
75497;BME280;64074;47.540;19.072;2023-04-30T13:11:28;100451.34;;;26.61;27.11
75497;BME280;64074;47.540;19.072;2023-04-30T13:14:47;100434.34;;;24.07;30.87
75497;BME280;64074;47.540;19.072;2023-04-30T13:18:06;100434.66;;;25.33;29.31
75497;BME280;64074;47.540;19.072;2023-04-30T13:21:52;100433.47;;;28.05;25.73
75497;BME280;64074;47.540;19.072;2023-04-30T13:25:23;100420.81;;;29.36;23.47
75497;BME280;64074;47.540;19.072;2023-04-30T13:28:58;100431.59;;;29.88;23.37
75497;BME280;64074;47.540;19.072;2023-04-30T13:32:10;100425.38;;;27.00;26.63
75497;BME280;64074;47.540;19.072;2023-04-30T13:35:29;100425.25;;;24.65;29.97
75497;BME280;64074;47.540;19.072;2023-04-30T13:38:43;100426.31;;;23.91;30.85
75497;BME280;64074;47.540;19.072;2023-04-30T13:41:53;100436.00;;;23.30;32.28
75497;BME280;64074;47.540;19.072;2023-04-30T13:45:10;100438.28;;;25.76;28.39
75497;BME280;64074;47.540;19.072;2023-04-30T13:48:24;100427.91;;;25.30;28.54
75497;BME280;64074;47.540;19.072;2023-04-30T13:51:34;100438.69;;;23.60;31.33
75497;BME280;64074;47.540;19.072;2023-04-30T13:55:10;100434.84;;;23.01;32.85
75497;BME280;64074;47.540;19.072;2023-04-30T13:58:37;100430.28;;;23.16;32.42
75497;BME280;64074;47.540;19.072;2023-04-30T14:01:52;100433.72;;;27.07;26.47
75497;BME280;64074;47.540;19.072;2023-04-30T14:05:27;100436.09;;;27.12;26.11
75497;BME280;64074;47.540;19.072;2023-04-30T14:08:44;100438.63;;;25.42;28.61
75497;BME280;64074;47.540;19.072;2023-04-30T14:12:05;100433.06;;;28.06;25.31
75497;BME280;64074;47.540;19.072;2023-04-30T14:15:56;100438.88;;;28.26;25.20
75497;BME280;64074;47.540;19.072;2023-04-30T14:19:05;100433.88;;;29.70;23.09
75497;BME280;64074;47.540;19.072;2023-04-30T14:22:24;100433.66;;;28.32;24.61
75497;BME280;64074;47.540;19.072;2023-04-30T14:25:34;100432.53;;;27.08;26.19
75497;BME280;64074;47.540;19.072;2023-04-30T14:28:59;100437.50;;;25.75;28.70
75497;BME280;64074;47.540;19.072;2023-04-30T14:32:17;100426.75;;;26.24;28.21
75497;BME280;64074;47.540;19.072;2023-04-30T14:35:45;100424.69;;;25.21;30.00
75497;BME280;64074;47.540;19.072;2023-04-30T14:39:00;100429.41;;;23.82;31.35
75497;BME280;64074;47.540;19.072;2023-04-30T14:42:30;100425.19;;;22.84;33.35
75497;BME280;64074;47.540;19.072;2023-04-30T14:45:38;100444.66;;;22.95;33.58
75497;BME280;64074;47.540;19.072;2023-04-30T14:48:47;100453.16;;;23.09;33.26
75497;BME280;64074;47.540;19.072;2023-04-30T14:51:53;100466.78;;;22.95;36.55
75497;BME280;64074;47.540;19.072;2023-04-30T14:55:07;100463.91;;;22.58;38.59
75497;BME280;64074;47.540;19.072;2023-04-30T14:58:19;100466.13;;;22.22;39.02
75497;BME280;64074;47.540;19.072;2023-04-30T15:01:44;100478.50;;;21.63;40.92
75497;BME280;64074;47.540;19.072;2023-04-30T15:05:07;100487.66;;;21.48;41.30
75497;BME280;64074;47.540;19.072;2023-04-30T15:08:32;100486.34;;;21.23;42.28
75497;BME280;64074;47.540;19.072;2023-04-30T15:11:56;100488.16;;;21.15;42.34
75497;BME280;64074;47.540;19.072;2023-04-30T15:15:12;100495.78;;;21.22;42.72
75497;BME280;64074;47.540;19.072;2023-04-30T15:18:27;100504.63;;;20.92;43.21
75497;BME280;64074;47.540;19.072;2023-04-30T15:21:47;100507.66;;;20.87;44.00
75497;BME280;64074;47.540;19.072;2023-04-30T15:25:02;100514.94;;;20.60;44.47
75497;BME280;64074;47.540;19.072;2023-04-30T15:28:42;100520.53;;;20.64;44.75
75497;BME280;64074;47.540;19.072;2023-04-30T15:32:17;100518.66;;;20.20;45.83
75497;BME280;64074;47.540;19.072;2023-04-30T15:35:31;100518.44;;;20.41;45.63
75497;BME280;64074;47.540;19.072;2023-04-30T15:39:01;100518.13;;;20.15;47.04
75497;BME280;64074;47.540;19.072;2023-04-30T15:42:16;100521.47;;;19.77;47.85
75497;BME280;64074;47.540;19.072;2023-04-30T15:45:32;100530.19;;;19.94;48.02
75497;BME280;64074;47.540;19.072;2023-04-30T15:49:05;100531.09;;;19.98;47.58
75497;BME280;64074;47.540;19.072;2023-04-30T15:52:15;100538.19;;;20.31;46.76
75497;BME280;64074;47.540;19.072;2023-04-30T15:55:51;100539.78;;;19.85;47.90
75497;BME280;64074;47.540;19.072;2023-04-30T15:59:12;100550.34;;;19.55;52.55
75497;BME280;64074;47.540;19.072;2023-04-30T16:02:45;100555.63;;;19.60;53.33
75497;BME280;64074;47.540;19.072;2023-04-30T16:06:01;100548.06;;;19.45;52.87
75497;BME280;64074;47.540;19.072;2023-04-30T16:09:11;100545.03;;;19.34;54.96
75497;BME280;64074;47.540;19.072;2023-04-30T16:12:35;100556.63;;;19.55;56.27
75497;BME280;64074;47.540;19.072;2023-04-30T16:15:58;100548.91;;;19.33;55.50
75497;BME280;64074;47.540;19.072;2023-04-30T16:19:09;100553.28;;;19.34;56.00
75497;BME280;64074;47.540;19.072;2023-04-30T16:22:41;100552.78;;;19.44;55.14
75497;BME280;64074;47.540;19.072;2023-04-30T16:26:05;100556.78;;;19.47;53.81
75497;BME280;64074;47.540;19.072;2023-04-30T16:30:11;100559.66;;;18.98;55.50
75497;BME280;64074;47.540;19.072;2023-04-30T16:33:42;100557.72;;;18.74;58.41
75497;BME280;64074;47.540;19.072;2023-04-30T16:37:04;100552.09;;;18.58;57.56
75497;BME280;64074;47.540;19.072;2023-04-30T16:40:28;100561.69;;;18.16;59.20
75497;BME280;64074;47.540;19.072;2023-04-30T16:43:42;100568.06;;;18.07;60.87
75497;BME280;64074;47.540;19.072;2023-04-30T16:46:53;100565.50;;;18.35;60.80
75497;BME280;64074;47.540;19.072;2023-04-30T16:50:31;100560.44;;;17.80;61.86
75497;BME280;64074;47.540;19.072;2023-04-30T16:53:41;100550.25;;;17.68;61.87
75497;BME280;64074;47.540;19.072;2023-04-30T16:56:47;100551.69;;;17.66;64.07
75497;BME280;64074;47.540;19.072;2023-04-30T16:59:54;100555.97;;;17.54;65.19
75497;BME280;64074;47.540;19.072;2023-04-30T17:03:11;100550.81;;;17.41;64.25
75497;BME280;64074;47.540;19.072;2023-04-30T17:06:24;100557.59;;;17.56;65.28
75497;BME280;64074;47.540;19.072;2023-04-30T17:09:40;100557.88;;;17.42;62.61
75497;BME280;64074;47.540;19.072;2023-04-30T17:13:14;100557.72;;;17.59;62.83
75497;BME280;64074;47.540;19.072;2023-04-30T17:17:04;100559.75;;;17.71;65.00
75497;BME280;64074;47.540;19.072;2023-04-30T17:20:45;100560.66;;;17.75;65.28
75497;BME280;64074;47.540;19.072;2023-04-30T17:24:15;100561.81;;;17.74;66.04
75497;BME280;64074;47.540;19.072;2023-04-30T17:27:35;100557.38;;;17.81;64.51
75497;BME280;64074;47.540;19.072;2023-04-30T17:30:45;100569.28;;;17.86;64.78
75497;BME280;64074;47.540;19.072;2023-04-30T17:34:24;100574.09;;;17.89;65.14
75497;BME280;64074;47.540;19.072;2023-04-30T17:37:55;100580.44;;;17.80;65.96
75497;BME280;64074;47.540;19.072;2023-04-30T17:41:05;100589.22;;;17.74;67.15
75497;BME280;64074;47.540;19.072;2023-04-30T17:44:28;100590.72;;;17.71;68.06
75497;BME280;64074;47.540;19.072;2023-04-30T17:47:40;100591.22;;;17.65;66.81
75497;BME280;64074;47.540;19.072;2023-04-30T17:51:09;100599.00;;;17.42;65.92
75497;BME280;64074;47.540;19.072;2023-04-30T17:54:37;100597.56;;;17.57;66.79
75497;BME280;64074;47.540;19.072;2023-04-30T17:58:04;100597.25;;;17.79;64.78
75497;BME280;64074;47.540;19.072;2023-04-30T18:01:16;100608.22;;;17.79;65.42
75497;BME280;64074;47.540;19.072;2023-04-30T18:04:27;100606.28;;;17.79;65.24
75497;BME280;64074;47.540;19.072;2023-04-30T18:07:58;100608.63;;;17.69;64.19
75497;BME280;64074;47.540;19.072;2023-04-30T18:11:15;100601.56;;;17.59;62.55
75497;BME280;64074;47.540;19.072;2023-04-30T18:14:53;100612.75;;;17.33;61.69
75497;BME280;64074;47.540;19.072;2023-04-30T18:18:12;100610.75;;;17.21;64.18
75497;BME280;64074;47.540;19.072;2023-04-30T18:21:32;100611.78;;;17.08;63.30
75497;BME280;64074;47.540;19.072;2023-04-30T18:25:04;100622.13;;;17.11;64.27